createdAt,value
2022-11-26T00:04:45.834Z,118.80
2022-11-26T00:14:49.597Z,120.20
2022-11-26T00:24:55.602Z,121.03
2022-11-26T00:34:59.054Z,118.67
2022-11-26T00:45:03.950Z,121.70
2022-11-26T00:55:22.465Z,120.87
2022-11-26T01:05:30.694Z,118.77
2022-11-26T01:15:34.259Z,121.07
2022-11-26T01:25:39.642Z,123.43
2022-11-26T01:35:43.063Z,124.07
2022-11-26T01:45:48.006Z,125.60
2022-11-26T01:55:55.072Z,122.07
2022-11-26T02:06:06.992Z,124.67
2022-11-26T02:16:20.405Z,122.10
2022-11-26T02:26:49.527Z,114.03
2022-11-26T02:37:00.221Z,114.60
2022-11-26T02:47:07.036Z,119.07
2022-11-26T02:57:16.262Z,115.90
2022-11-26T03:07:20.096Z,117.17
2022-11-26T03:17:24.937Z,116.37
2022-11-26T03:27:28.680Z,113.37
2022-11-26T03:37:33.553Z,119.50
2022-11-26T03:47:37.011Z,123.00
2022-11-26T03:57:41.933Z,117.67
2022-11-26T04:07:45.522Z,120.97
2022-11-26T04:17:50.336Z,117.07
2022-11-26T04:27:53.924Z,114.93
2022-11-26T04:37:58.700Z,116.80
2022-11-26T04:48:02.175Z,105.73
2022-11-26T04:58:07.384Z,108.37
2022-11-26T05:08:10.799Z,110.07
2022-11-26T05:18:16.759Z,109.77
2022-11-26T05:28:20.227Z,117.17
2022-11-26T05:38:25.170Z,114.83
2022-11-26T05:48:28.649Z,120.83
2022-11-26T05:58:33.834Z,121.63
2022-11-26T06:08:37.369Z,116.23
2022-11-26T06:18:42.275Z,123.73
2022-11-26T06:28:45.758Z,119.63
2022-11-26T06:38:50.715Z,123.77
2022-11-26T06:48:54.261Z,120.93
2022-11-26T06:58:59.452Z,118.87
2022-11-26T07:09:07.297Z,118.07
2022-11-26T07:19:15.343Z,116.20
2022-11-26T07:29:18.854Z,121.17
2022-11-26T07:39:23.726Z,119.73
2022-11-26T07:49:27.322Z,122.57
2022-11-26T07:59:32.319Z,117.20
2022-11-26T08:09:35.890Z,114.13
2022-11-26T08:19:40.796Z,120.63
2022-11-26T08:29:44.317Z,117.80
2022-11-26T08:39:49.141Z,120.50
2022-11-26T08:49:52.661Z,117.70
2022-11-26T08:59:57.513Z,118.40
2022-11-26T09:10:01.470Z,125.10
2022-11-26T09:20:08.264Z,121.57
2022-11-26T09:30:13.780Z,132.30
2022-11-26T09:40:21.219Z,131.57
2022-11-26T09:50:31.749Z,141.90
2022-11-26T10:00:40.958Z,131.97
2022-11-26T10:10:54.636Z,132.63
2022-11-26T10:21:32.312Z,128.77
2022-11-26T10:31:48.418Z,131.80
2022-11-26T10:41:53.329Z,131.67
2022-11-26T10:52:01.805Z,150.40
2022-11-26T11:02:22.677Z,118.40
2022-11-26T11:12:26.521Z,122.93
2022-11-26T11:22:31.640Z,134.67
2022-11-26T11:32:38.192Z,123.77
2022-11-26T11:42:46.173Z,119.73
2022-11-26T11:53:03.254Z,116.63
2022-11-26T12:03:34.989Z,130.77
2022-11-26T12:13:47.851Z,122.03
2022-11-26T12:23:58.681Z,113.73
2022-11-26T12:34:08.987Z,118.20
2022-11-26T12:44:21.147Z,117.20
2022-11-26T12:54:33.051Z,109.30
2022-11-26T13:04:38.433Z,108.17
2022-11-26T13:14:48.018Z,105.20
2022-11-26T13:25:14.665Z,109.60
2022-11-26T13:35:30.369Z,104.40
2022-11-26T13:46:05.777Z,104.47
2022-11-26T13:56:11.977Z,99.43
2022-11-26T14:06:17.023Z,103.33
2022-11-26T14:16:20.562Z,102.77
2022-11-26T14:26:31.608Z,104.63
2022-11-26T14:36:35.870Z,109.97
2022-11-26T14:46:42.422Z,99.43
2022-11-26T14:56:47.108Z,111.80
2022-11-26T15:06:52.314Z,109.83
2022-11-26T15:17:02.012Z,129.37
2022-11-26T15:27:07.258Z,132.33
2022-11-26T15:37:11.203Z,122.50
2022-11-26T15:47:21.352Z,134.07
2022-11-26T15:57:29.953Z,122.40
2022-11-26T16:07:35.099Z,141.10
2022-11-26T16:17:38.685Z,113.80
2022-11-26T16:27:49.140Z,115.57
2022-11-26T16:37:54.213Z,119.93
2022-11-26T16:47:59.099Z,118.27
2022-11-26T16:58:03.378Z,134.40
2022-11-26T17:08:12.881Z,127.77
2022-11-26T17:18:20.806Z,131.57
2022-11-26T17:28:26.584Z,132.73
2022-11-26T17:38:30.495Z,131.60
2022-11-26T17:48:35.357Z,130.83
2022-11-26T17:58:39.209Z,115.83
2022-11-26T18:08:44.716Z,110.43
2022-11-26T18:18:48.546Z,106.53
2022-11-26T18:28:53.364Z,115.23
2022-11-26T18:38:57.737Z,108.80
2022-11-26T18:49:02.966Z,109.77
2022-11-26T18:59:06.605Z,106.93
2022-11-26T19:09:18.399Z,102.77
2022-11-26T19:19:22.049Z,110.60
2022-11-26T19:29:27.033Z,97.17
2022-11-26T19:39:30.714Z,94.63
2022-11-26T19:49:36.704Z,97.47
2022-11-26T19:59:40.546Z,99.87
2022-11-26T20:09:45.720Z,103.57
2022-11-26T20:19:49.225Z,98.13
2022-11-26T20:29:54.070Z,104.40
2022-11-26T20:39:57.793Z,104.20
2022-11-26T20:50:02.688Z,105.37
2022-11-26T21:00:09.130Z,111.17
2022-11-26T21:10:15.873Z,114.63
2022-11-26T21:20:19.470Z,100.03
2022-11-26T21:30:24.493Z,113.43
2022-11-26T21:40:28.970Z,113.80
2022-11-26T21:50:34.012Z,114.27
2022-11-26T22:00:38.508Z,112.97
2022-11-26T22:10:44.804Z,109.70
2022-11-26T22:20:52.477Z,111.30
2022-11-26T22:30:57.540Z,110.00
2022-11-26T22:41:03.956Z,106.73
2022-11-26T22:51:09.326Z,101.50
2022-11-26T23:01:20.101Z,99.43
2022-11-26T23:11:27.546Z,104.20
2022-11-26T23:21:34.279Z,103.83
2022-11-26T23:31:42.065Z,100.23
2022-11-26T23:41:45.652Z,95.77
2022-11-26T23:51:50.613Z,95.23
